createdAt,value
2018-06-08T00:00:26.171Z,63
2018-06-08T00:01:26.890Z,63
2018-06-08T00:02:27.609Z,64
2018-06-08T00:03:28.328Z,64
2018-06-08T00:04:29.061Z,63
2018-06-08T00:05:29.776Z,62
2018-06-08T00:06:30.509Z,64
2018-06-08T00:07:31.228Z,64
2018-06-08T00:08:31.947Z,63
2018-06-08T00:09:32.676Z,63
2018-06-08T00:10:33.400Z,62
2018-06-08T00:11:34.116Z,62
2018-06-08T00:12:34.837Z,61
2018-06-08T00:13:35.554Z,61
2018-06-08T00:14:36.272Z,63
2018-06-08T00:15:37.003Z,62
2018-06-08T00:16:37.722Z,61
2018-06-08T00:17:38.453Z,61
2018-06-08T00:18:39.183Z,62
2018-06-08T00:19:39.899Z,62
2018-06-08T00:20:40.619Z,61
2018-06-08T00:21:41.341Z,61
2018-06-08T00:22:42.062Z,61
2018-06-08T00:23:42.776Z,61
2018-06-08T00:24:43.495Z,60
2018-06-08T00:25:44.235Z,60
2018-06-08T00:26:44.952Z,59
2018-06-08T00:27:45.683Z,60
2018-06-08T00:28:46.397Z,59
2018-06-08T00:29:47.115Z,59
2018-06-08T00:30:47.842Z,59
2018-06-08T00:31:48.561Z,59
2018-06-08T00:32:49.286Z,59
2018-06-08T00:33:50.003Z,58
2018-06-08T00:34:50.721Z,58
2018-06-08T00:35:51.451Z,58
2018-06-08T00:36:52.178Z,58
2018-06-08T00:37:52.897Z,57
2018-06-08T00:38:53.621Z,57
2018-06-08T00:39:54.338Z,57
2018-06-08T00:40:55.055Z,57
2018-06-08T00:41:55.769Z,56
2018-06-08T00:42:56.488Z,56
2018-06-08T00:43:57.204Z,56
2018-06-08T00:44:57.919Z,55
2018-06-08T00:45:58.635Z,55
2018-06-08T00:46:59.349Z,55
2018-06-08T00:48:00.078Z,55
2018-06-08T00:49:00.798Z,55
2018-06-08T00:50:01.558Z,55
2018-06-08T00:51:02.227Z,54
2018-06-08T00:52:02.953Z,53
2018-06-08T00:53:03.679Z,53
2018-06-08T00:54:04.399Z,53
2018-06-08T00:55:05.109Z,52
2018-06-08T00:56:05.838Z,52
2018-06-08T00:57:06.551Z,52
2018-06-08T00:58:07.279Z,52
2018-06-08T00:59:07.997Z,51
2018-06-08T01:00:08.727Z,51
2018-06-08T01:01:09.451Z,51
2018-06-08T01:02:10.166Z,51
2018-06-08T01:03:10.881Z,51
2018-06-08T01:04:11.594Z,50
2018-06-08T01:05:12.311Z,50
2018-06-08T01:06:13.024Z,50
2018-06-08T01:07:13.740Z,50
2018-06-08T01:08:14.457Z,50
2018-06-08T01:09:15.170Z,50
2018-06-08T01:10:15.886Z,50
2018-06-08T01:11:16.602Z,50
2018-06-08T01:12:17.316Z,50
2018-06-08T01:13:18.033Z,49
2018-06-08T01:14:18.748Z,49
2018-06-08T01:15:19.463Z,49
2018-06-08T01:16:20.179Z,49
2018-06-08T01:17:20.894Z,49
2018-06-08T01:18:21.608Z,48
2018-06-08T01:19:22.325Z,48
2018-06-08T01:20:23.038Z,48
2018-06-08T01:21:23.757Z,47
2018-06-08T01:22:24.471Z,48
2018-06-08T01:23:25.201Z,47
2018-06-08T01:24:25.918Z,47
2018-06-08T01:25:26.632Z,47
2018-06-08T01:26:27.358Z,47
2018-06-08T01:27:28.074Z,46
2018-06-08T01:28:28.788Z,46
2018-06-08T01:29:29.506Z,45
2018-06-08T01:30:30.218Z,45
2018-06-08T01:31:30.932Z,45
2018-06-08T01:32:31.647Z,44
2018-06-08T01:33:32.362Z,45
2018-06-08T01:34:33.082Z,45
2018-06-08T01:35:33.792Z,45
2018-06-08T01:36:34.515Z,45
2018-06-08T01:37:35.234Z,44
2018-06-08T01:38:35.949Z,44
2018-06-08T01:39:36.665Z,44
2018-06-08T01:40:37.391Z,44
2018-06-08T01:41:38.127Z,43
2018-06-08T01:42:38.836Z,44
2018-06-08T01:43:39.554Z,43
2018-06-08T01:44:40.268Z,43
2018-06-08T01:45:40.987Z,43
2018-06-08T01:46:41.700Z,43
2018-06-08T01:47:42.417Z,43
2018-06-08T01:48:43.142Z,43
2018-06-08T01:49:43.858Z,43
2018-06-08T01:50:44.574Z,43
2018-06-08T01:51:45.292Z,43
2018-06-08T01:52:46.007Z,43
2018-06-08T01:53:46.721Z,43
2018-06-08T01:54:47.436Z,42
2018-06-08T01:55:48.153Z,42
2018-06-08T01:56:48.878Z,42
2018-06-08T01:57:49.591Z,42
2018-06-08T01:58:50.307Z,42
2018-06-08T01:59:51.034Z,42
2018-06-08T02:00:51.767Z,42
2018-06-08T02:01:52.466Z,42
2018-06-08T02:02:53.183Z,42
2018-06-08T02:03:53.898Z,41
2018-06-08T02:04:54.614Z,42
2018-06-08T02:05:55.330Z,42
2018-06-08T02:06:56.045Z,42
2018-06-08T02:07:56.772Z,41
2018-06-08T02:08:57.489Z,41
2018-06-08T02:09:58.213Z,41
2018-06-08T02:10:58.930Z,41
2018-06-08T02:11:59.645Z,41
2018-06-08T02:13:00.359Z,41
2018-06-08T02:14:01.073Z,41
2018-06-08T02:15:01.788Z,41
2018-06-08T02:16:02.501Z,41
2018-06-08T02:17:03.215Z,41
2018-06-08T02:18:03.930Z,40
2018-06-08T02:19:04.644Z,41
2018-06-08T02:20:05.358Z,40
2018-06-08T02:21:06.075Z,41
2018-06-08T02:22:06.790Z,41
2018-06-08T02:23:07.503Z,40
2018-06-08T02:24:08.218Z,40
2018-06-08T02:25:08.933Z,40
2018-06-08T02:26:09.648Z,41
2018-06-08T02:27:10.363Z,40
2018-06-08T02:28:11.090Z,40
2018-06-08T02:29:11.802Z,40
2018-06-08T02:30:12.519Z,40
2018-06-08T02:31:13.232Z,40
2018-06-08T02:32:13.947Z,40
2018-06-08T02:33:14.661Z,40
2018-06-08T02:34:15.389Z,40
2018-06-08T02:35:16.104Z,40
2018-06-08T02:36:16.822Z,40
2018-06-08T02:37:17.546Z,40
2018-06-08T02:38:18.262Z,40
2018-06-08T02:39:18.977Z,40
2018-06-08T02:40:19.703Z,40
2018-06-08T02:41:20.416Z,40
2018-06-08T02:42:21.132Z,40
2018-06-08T02:43:21.845Z,40
2018-06-08T02:44:22.571Z,40
2018-06-08T02:45:23.286Z,40
2018-06-08T02:46:24.000Z,40
2018-06-08T02:47:24.727Z,40
2018-06-08T02:48:25.444Z,40
2018-06-08T02:49:26.159Z,40
2018-06-08T02:50:26.875Z,40
2018-06-08T02:51:27.593Z,40
2018-06-08T02:52:28.321Z,40
2018-06-08T02:53:29.036Z,40
2018-06-08T02:54:29.752Z,40
2018-06-08T02:55:30.478Z,40
2018-06-08T02:56:31.195Z,40
2018-06-08T02:57:31.923Z,40
2018-06-08T02:58:32.644Z,40
2018-06-08T02:59:33.368Z,40
2018-06-08T03:00:34.097Z,40
2018-06-08T03:01:34.813Z,40
2018-06-08T03:02:35.544Z,40
2018-06-08T03:03:36.257Z,40
2018-06-08T03:04:36.979Z,40
2018-06-08T03:05:37.703Z,40
2018-06-08T03:06:38.420Z,39
2018-06-08T03:07:39.137Z,40
2018-06-08T03:08:39.868Z,40
2018-06-08T03:09:40.595Z,40
2018-06-08T03:10:41.311Z,40
2018-06-08T03:11:42.027Z,40
2018-06-08T03:12:42.743Z,40
2018-06-08T03:13:43.472Z,40
2018-06-08T03:14:44.188Z,40
2018-06-08T03:15:44.905Z,39
2018-06-08T03:16:45.622Z,40
2018-06-08T03:17:46.339Z,40
2018-06-08T03:18:47.056Z,40
2018-06-08T03:19:47.774Z,40
2018-06-08T03:20:48.493Z,40
2018-06-08T03:21:49.214Z,40
2018-06-08T03:22:49.930Z,40
2018-06-08T03:23:50.649Z,40
2018-06-08T03:24:51.367Z,40
2018-06-08T03:25:52.084Z,40
2018-06-08T03:26:52.802Z,40
2018-06-08T03:27:53.520Z,40
2018-06-08T03:28:54.243Z,40
2018-06-08T03:29:54.962Z,40
2018-06-08T03:30:55.692Z,40
2018-06-08T03:31:56.411Z,40
2018-06-08T03:32:57.126Z,40
2018-06-08T03:33:57.845Z,40
2018-06-08T03:34:58.575Z,40
2018-06-08T03:35:59.348Z,40
2018-06-08T03:37:00.014Z,40
2018-06-08T03:38:00.734Z,40
2018-06-08T03:39:01.463Z,40
2018-06-08T03:40:02.230Z,40
2018-06-08T03:41:02.910Z,40
2018-06-08T03:42:03.643Z,40
2018-06-08T03:43:04.362Z,40
2018-06-08T03:44:05.078Z,39
2018-06-08T03:45:05.796Z,40
2018-06-08T03:46:06.513Z,40
2018-06-08T03:47:07.231Z,40
2018-06-08T03:48:07.960Z,40
2018-06-08T03:49:08.680Z,40
2018-06-08T03:50:09.414Z,40
2018-06-08T03:51:10.147Z,40
2018-06-08T03:52:10.863Z,39
2018-06-08T03:53:11.594Z,40
2018-06-08T03:54:12.314Z,40
2018-06-08T03:55:13.043Z,40
2018-06-08T03:56:13.762Z,40
2018-06-08T03:57:14.481Z,40
2018-06-08T03:58:15.201Z,40
2018-06-08T03:59:15.932Z,40
2018-06-08T04:00:16.651Z,40
2018-06-08T04:01:17.369Z,40
2018-06-08T04:02:18.086Z,40
2018-06-08T04:03:18.804Z,40
2018-06-08T04:04:19.522Z,40
2018-06-08T04:05:20.245Z,40
2018-06-08T04:06:20.974Z,40
2018-06-08T04:07:21.693Z,39
2018-06-08T04:08:22.422Z,40
2018-06-08T04:09:23.142Z,40
2018-06-08T04:10:23.873Z,40
2018-06-08T04:11:24.604Z,40
2018-06-08T04:12:25.322Z,40
2018-06-08T04:13:26.040Z,40
2018-06-08T04:14:26.757Z,40
2018-06-08T04:15:27.476Z,40
2018-06-08T04:16:28.206Z,40
2018-06-08T04:17:28.924Z,40
2018-06-08T04:18:29.655Z,40
2018-06-08T04:19:30.374Z,40
2018-06-08T04:20:31.103Z,40
2018-06-08T04:21:31.819Z,40
2018-06-08T04:22:32.535Z,39
2018-06-08T04:23:33.267Z,40
2018-06-08T04:24:33.985Z,40
2018-06-08T04:25:34.714Z,40
2018-06-08T04:26:35.433Z,40
2018-06-08T04:27:36.154Z,40
2018-06-08T04:28:36.872Z,40
2018-06-08T04:29:37.590Z,40
2018-06-08T04:30:38.325Z,40
2018-06-08T04:31:39.041Z,40
2018-06-08T04:32:39.799Z,40
2018-06-08T04:33:40.477Z,40
2018-06-08T04:34:41.197Z,40
2018-06-08T04:35:41.917Z,40
2018-06-08T04:36:42.634Z,40
2018-06-08T04:37:43.352Z,40
2018-06-08T04:38:44.071Z,40
2018-06-08T04:39:44.788Z,40
2018-06-08T04:40:45.507Z,40
2018-06-08T04:41:46.226Z,40
2018-06-08T04:42:46.946Z,40
2018-06-08T04:43:47.665Z,39
2018-06-08T04:44:48.383Z,38
2018-06-08T04:45:49.101Z,37
2018-06-08T04:46:49.820Z,36
2018-06-08T04:47:50.538Z,36
2018-06-08T04:48:51.258Z,36
2018-06-08T04:49:51.976Z,35
2018-06-08T04:50:52.693Z,35
2018-06-08T04:51:53.411Z,35
2018-06-08T04:52:54.128Z,36
2018-06-08T04:53:54.846Z,35
2018-06-08T04:54:55.577Z,35
2018-06-08T04:55:56.296Z,35
2018-06-08T04:56:57.013Z,35
2018-06-08T04:57:57.730Z,35
2018-06-08T04:58:58.450Z,34
2018-06-08T04:59:59.181Z,34
2018-06-08T05:00:59.901Z,34
2018-06-08T05:02:00.625Z,34
2018-06-08T05:03:01.342Z,33
2018-06-08T05:04:02.062Z,32
2018-06-08T05:05:02.784Z,32
2018-06-08T05:06:03.519Z,32
2018-06-08T05:07:04.234Z,31
2018-06-08T05:08:04.959Z,31
2018-06-08T05:09:05.674Z,31
2018-06-08T05:10:06.392Z,30
2018-06-08T05:11:07.123Z,30
2018-06-08T05:12:07.842Z,30
2018-06-08T05:13:08.573Z,30
2018-06-08T05:14:09.294Z,30
2018-06-08T05:15:10.013Z,31
2018-06-08T05:16:10.732Z,32
2018-06-08T05:17:11.464Z,32
2018-06-08T05:18:12.184Z,34
2018-06-08T05:19:12.904Z,33
2018-06-08T05:20:13.625Z,33
2018-06-08T05:21:14.350Z,33
2018-06-08T05:22:15.079Z,34
2018-06-08T05:23:15.797Z,33
2018-06-08T05:24:16.519Z,33
2018-06-08T05:25:17.240Z,35
2018-06-08T05:26:17.989Z,35
2018-06-08T05:27:18.686Z,34
2018-06-08T05:28:19.408Z,34
2018-06-08T05:29:20.128Z,34
2018-06-08T05:30:20.849Z,34
2018-06-08T05:31:21.574Z,35
2018-06-08T05:32:22.305Z,35
2018-06-08T05:33:23.037Z,35
2018-06-08T05:34:23.758Z,35
2018-06-08T05:35:24.478Z,35
2018-06-08T05:36:25.198Z,34
2018-06-08T05:37:25.921Z,34
2018-06-08T05:38:26.645Z,33
2018-06-08T05:39:27.374Z,33
2018-06-08T05:40:28.108Z,32
2018-06-08T05:41:28.829Z,32
2018-06-08T05:42:29.571Z,33
2018-06-08T05:43:30.269Z,34
2018-06-08T05:44:30.989Z,34
2018-06-08T05:45:31.712Z,35
2018-06-08T05:46:32.434Z,36
2018-06-08T05:47:33.158Z,36
2018-06-08T05:48:33.928Z,36
2018-06-08T05:49:34.613Z,35
2018-06-08T05:50:35.347Z,35
2018-06-08T05:51:36.069Z,35
2018-06-08T05:52:36.792Z,35
2018-06-08T05:53:37.557Z,35
2018-06-08T05:54:38.240Z,36
2018-06-08T05:55:38.961Z,36
2018-06-08T05:56:39.682Z,35
2018-06-08T05:57:40.405Z,35
2018-06-08T05:58:41.128Z,35
2018-06-08T05:59:41.850Z,35
2018-06-08T06:00:42.573Z,35
2018-06-08T06:01:43.294Z,35
2018-06-08T06:02:44.029Z,34
2018-06-08T06:03:44.750Z,35
2018-06-08T06:04:45.485Z,35
2018-06-08T06:05:46.213Z,35
2018-06-08T06:06:46.936Z,35
2018-06-08T06:07:47.663Z,35
2018-06-08T06:08:48.395Z,36
2018-06-08T06:09:49.123Z,35
2018-06-08T06:10:49.842Z,35
2018-06-08T06:11:50.565Z,36
2018-06-08T06:12:51.292Z,35
2018-06-08T06:13:52.028Z,36
2018-06-08T06:14:52.805Z,36
2018-06-08T06:15:53.503Z,36
2018-06-08T06:16:54.231Z,37
2018-06-08T06:17:54.964Z,37
2018-06-08T06:18:55.691Z,36
2018-06-08T06:19:56.419Z,36
2018-06-08T06:20:57.162Z,36
2018-06-08T06:21:57.872Z,37
2018-06-08T06:22:58.598Z,37
2018-06-08T06:23:59.321Z,39
2018-06-08T06:25:00.048Z,38
2018-06-08T06:26:00.768Z,38
2018-06-08T06:27:01.496Z,37
2018-06-08T06:28:02.215Z,38
2018-06-08T06:29:02.952Z,39
2018-06-08T06:30:03.680Z,39
2018-06-08T06:31:04.399Z,40
2018-06-08T06:32:05.137Z,39
2018-06-08T06:33:05.862Z,38
2018-06-08T06:34:06.589Z,38
2018-06-08T06:35:07.318Z,38
2018-06-08T06:36:08.056Z,38
2018-06-08T06:37:08.778Z,38
2018-06-08T06:38:09.503Z,38
2018-06-08T06:39:10.239Z,38
2018-06-08T06:40:10.966Z,38
2018-06-08T06:41:11.691Z,40
2018-06-08T06:42:12.413Z,39
2018-06-08T06:43:13.142Z,39
2018-06-08T06:44:13.876Z,39
2018-06-08T06:45:14.599Z,40
2018-06-08T06:46:15.323Z,39
2018-06-08T06:47:16.063Z,39
2018-06-08T06:48:16.786Z,39
2018-06-08T06:49:17.511Z,39
2018-06-08T06:50:18.235Z,38
2018-06-08T06:51:18.958Z,38
2018-06-08T06:52:19.681Z,39
2018-06-08T06:53:20.412Z,39
2018-06-08T06:54:21.140Z,39
2018-06-08T06:55:21.868Z,39
2018-06-08T06:56:22.590Z,38
2018-06-08T06:57:23.331Z,40
2018-06-08T06:58:24.052Z,39
2018-06-08T06:59:24.777Z,40
2018-06-08T07:00:25.501Z,39
2018-06-08T07:01:26.227Z,38
2018-06-08T07:02:26.962Z,38
2018-06-08T07:03:27.684Z,38
2018-06-08T07:04:28.432Z,38
2018-06-08T07:05:29.162Z,38
2018-06-08T07:06:29.881Z,38
2018-06-08T07:07:30.602Z,38
2018-06-08T07:08:31.325Z,38
2018-06-08T07:09:32.051Z,38
2018-06-08T07:10:32.773Z,38
2018-06-08T07:11:33.512Z,38
2018-06-08T07:12:34.237Z,38
2018-06-08T07:13:34.961Z,38
2018-06-08T07:14:35.685Z,39
2018-06-08T07:15:36.411Z,38
2018-06-08T07:16:37.136Z,38
2018-06-08T07:17:37.858Z,39
2018-06-08T07:18:38.642Z,38
2018-06-08T07:19:39.322Z,38
2018-06-08T07:20:40.046Z,38
2018-06-08T07:21:40.771Z,38
2018-06-08T07:22:41.498Z,38
2018-06-08T07:23:42.233Z,38
2018-06-08T07:24:42.991Z,38
2018-06-08T07:25:43.698Z,39
2018-06-08T07:26:44.423Z,38
2018-06-08T07:27:45.146Z,38
2018-06-08T07:28:45.870Z,38
2018-06-08T07:29:46.607Z,38
2018-06-08T07:30:47.331Z,39
2018-06-08T07:31:48.113Z,38
2018-06-08T07:32:48.802Z,38
2018-06-08T07:33:49.533Z,38
2018-06-08T07:34:50.259Z,39
2018-06-08T07:35:50.996Z,39
2018-06-08T07:36:51.734Z,38
2018-06-08T07:37:52.460Z,38
2018-06-08T07:38:53.186Z,38
2018-06-08T07:39:53.923Z,38
2018-06-08T07:40:54.639Z,38
2018-06-08T07:41:55.377Z,38
2018-06-08T07:42:56.104Z,39
2018-06-08T07:43:56.829Z,39
2018-06-08T07:44:57.568Z,38
2018-06-08T07:45:58.291Z,39
2018-06-08T07:46:59.017Z,39
2018-06-08T07:47:59.743Z,38
2018-06-08T07:49:00.483Z,39
2018-06-08T07:50:01.209Z,38
2018-06-08T07:51:01.936Z,38
2018-06-08T07:52:02.669Z,39
2018-06-08T07:53:03.396Z,40
2018-06-08T07:54:04.124Z,40
2018-06-08T07:55:04.854Z,39
2018-06-08T07:56:05.590Z,39
2018-06-08T07:57:06.317Z,39
2018-06-08T07:58:07.046Z,40
2018-06-08T07:59:07.783Z,39
2018-06-08T08:00:08.521Z,39
2018-06-08T08:01:09.270Z,39
2018-06-08T08:02:09.971Z,39
2018-06-08T08:03:10.698Z,39
2018-06-08T08:04:11.425Z,39
2018-06-08T08:05:12.153Z,39
2018-06-08T08:06:12.984Z,38
2018-06-08T08:07:13.611Z,39
2018-06-08T08:08:14.336Z,39
2018-06-08T08:09:15.095Z,39
2018-06-08T08:10:15.799Z,38
2018-06-08T08:11:16.539Z,38
2018-06-08T08:12:17.261Z,38
2018-06-08T08:13:17.988Z,38
2018-06-08T08:14:18.715Z,38
2018-06-08T08:15:19.443Z,39
2018-06-08T08:16:20.169Z,39
2018-06-08T08:17:20.895Z,39
2018-06-08T08:18:21.623Z,38
2018-06-08T08:19:22.374Z,39
2018-06-08T08:20:23.074Z,39
2018-06-08T08:21:23.800Z,40
2018-06-08T08:22:24.528Z,40
2018-06-08T08:23:25.257Z,40
2018-06-08T08:24:25.984Z,40
2018-06-08T08:25:26.712Z,40
2018-06-08T08:26:27.436Z,40
2018-06-08T08:27:28.162Z,40
2018-06-08T08:28:28.891Z,40
2018-06-08T08:29:29.615Z,41
2018-06-08T08:30:30.355Z,40
2018-06-08T08:31:31.082Z,41
2018-06-08T08:32:31.814Z,41
2018-06-08T08:33:32.540Z,42
2018-06-08T08:34:33.263Z,42
2018-06-08T08:35:33.986Z,42
2018-06-08T08:36:34.710Z,41
2018-06-08T08:37:35.436Z,42
2018-06-08T08:38:36.161Z,41
2018-06-08T08:39:36.939Z,42
2018-06-08T08:40:37.616Z,41
2018-06-08T08:41:38.342Z,42
2018-06-08T08:42:39.062Z,41
2018-06-08T08:43:39.789Z,41
2018-06-08T08:44:40.517Z,40
2018-06-08T08:45:41.255Z,40
2018-06-08T08:46:41.969Z,40
2018-06-08T08:47:42.693Z,40
2018-06-08T08:48:43.420Z,40
2018-06-08T08:49:44.157Z,40
2018-06-08T08:50:44.881Z,40
2018-06-08T08:51:45.668Z,40
2018-06-08T08:52:46.341Z,42
2018-06-08T08:53:47.068Z,41
2018-06-08T08:54:47.789Z,41
2018-06-08T08:55:48.523Z,40
2018-06-08T08:56:49.267Z,40
2018-06-08T08:57:49.981Z,40
2018-06-08T08:58:50.705Z,40
2018-06-08T08:59:51.440Z,40
2018-06-08T09:00:52.168Z,40
2018-06-08T09:01:52.893Z,40
2018-06-08T09:02:53.622Z,40
2018-06-08T09:03:54.385Z,40
2018-06-08T09:04:55.076Z,39
2018-06-08T09:05:55.802Z,40
2018-06-08T09:06:56.528Z,39
2018-06-08T09:07:57.255Z,38
2018-06-08T09:08:57.983Z,41
2018-06-08T09:09:58.719Z,41
2018-06-08T09:10:59.451Z,41
2018-06-08T09:12:00.177Z,40
2018-06-08T09:13:00.903Z,39
2018-06-08T09:14:01.637Z,40
2018-06-08T09:15:02.360Z,39
2018-06-08T09:16:03.086Z,39
2018-06-08T09:17:03.808Z,40
2018-06-08T09:18:04.535Z,40
2018-06-08T09:19:05.258Z,39
2018-06-08T09:20:05.991Z,39
2018-06-08T09:21:06.708Z,41
2018-06-08T09:22:07.436Z,40
2018-06-08T09:23:08.172Z,39
2018-06-08T09:24:08.908Z,39
2018-06-08T09:25:09.633Z,39
2018-06-08T09:26:10.358Z,39
2018-06-08T09:27:11.096Z,38
2018-06-08T09:28:11.821Z,38
2018-06-08T09:29:12.548Z,40
2018-06-08T09:30:13.289Z,38
2018-06-08T09:31:14.013Z,40
2018-06-08T09:32:14.754Z,39
2018-06-08T09:33:15.532Z,39
2018-06-08T09:34:16.216Z,38
2018-06-08T09:35:16.956Z,38
2018-06-08T09:36:17.692Z,39
2018-06-08T09:37:18.430Z,38
2018-06-08T09:38:19.157Z,38
2018-06-08T09:39:19.879Z,39
2018-06-08T09:40:20.607Z,39
2018-06-08T09:41:21.331Z,39
2018-06-08T09:42:22.068Z,39
2018-06-08T09:43:22.792Z,39
2018-06-08T09:44:23.534Z,39
2018-06-08T09:45:24.251Z,39
2018-06-08T09:46:25.001Z,38
2018-06-08T09:47:25.700Z,38
2018-06-08T09:48:26.419Z,38
2018-06-08T09:49:27.141Z,38
2018-06-08T09:50:27.868Z,38
2018-06-08T09:51:28.593Z,38
2018-06-08T09:52:29.318Z,38
2018-06-08T09:53:30.043Z,38
2018-06-08T09:54:30.779Z,38
2018-06-08T09:55:31.504Z,38
2018-06-08T09:56:32.230Z,39
2018-06-08T09:57:32.968Z,38
2018-06-08T09:58:33.693Z,39
2018-06-08T09:59:34.416Z,38
2018-06-08T10:00:35.140Z,39
2018-06-08T10:01:35.864Z,39
2018-06-08T10:02:36.588Z,38
2018-06-08T10:03:37.312Z,38
2018-06-08T10:04:38.036Z,39
2018-06-08T10:05:38.772Z,39
2018-06-08T10:06:39.497Z,39
2018-06-08T10:07:40.220Z,39
2018-06-08T10:08:40.943Z,38
2018-06-08T10:09:41.671Z,38
2018-06-08T10:10:42.394Z,39
2018-06-08T10:11:43.118Z,38
2018-06-08T10:12:43.844Z,38
2018-06-08T10:13:44.579Z,38
2018-06-08T10:14:45.310Z,39
2018-06-08T10:15:46.034Z,38
2018-06-08T10:16:46.768Z,39
2018-06-08T10:17:47.503Z,39
2018-06-08T10:18:48.230Z,38
2018-06-08T10:19:48.953Z,38
2018-06-08T10:20:49.685Z,38
2018-06-08T10:21:50.406Z,38
2018-06-08T10:22:51.128Z,38
2018-06-08T10:23:51.853Z,38
2018-06-08T10:24:52.575Z,38
2018-06-08T10:25:53.296Z,38
2018-06-08T10:26:54.017Z,38
2018-06-08T10:27:54.739Z,38
2018-06-08T10:28:55.466Z,38
2018-06-08T10:29:56.200Z,38
2018-06-08T10:30:56.923Z,38
2018-06-08T10:31:57.644Z,38
2018-06-08T10:32:58.366Z,37
2018-06-08T10:33:59.092Z,38
2018-06-08T10:34:59.811Z,38
2018-06-08T10:36:00.545Z,38
2018-06-08T10:37:01.267Z,39
2018-06-08T10:38:01.988Z,38
2018-06-08T10:39:02.709Z,38
2018-06-08T10:40:03.505Z,37
2018-06-08T10:41:04.152Z,37
2018-06-08T10:42:04.870Z,38
2018-06-08T10:43:05.602Z,38
2018-06-08T10:44:06.327Z,38
2018-06-08T10:45:07.041Z,38
2018-06-08T10:46:07.767Z,38
2018-06-08T10:47:08.495Z,38
2018-06-08T10:48:09.218Z,38
2018-06-08T10:49:09.937Z,38
2018-06-08T10:50:10.669Z,38
2018-06-08T10:51:11.390Z,38
2018-06-08T10:52:12.109Z,38
2018-06-08T10:53:12.829Z,38
2018-06-08T10:54:13.546Z,38
2018-06-08T10:55:14.267Z,38
2018-06-08T10:56:14.989Z,37
2018-06-08T10:57:15.712Z,37
2018-06-08T10:58:16.431Z,37
2018-06-08T10:59:17.151Z,37
2018-06-08T11:00:17.871Z,36
2018-06-08T11:01:18.591Z,36
2018-06-08T11:02:19.309Z,36
2018-06-08T11:03:20.029Z,35
2018-06-08T11:04:20.748Z,35
2018-06-08T11:05:21.471Z,35
2018-06-08T11:06:22.188Z,35
2018-06-08T11:07:22.919Z,35
2018-06-08T11:08:23.639Z,34
2018-06-08T11:09:24.359Z,34
2018-06-08T11:10:25.079Z,34
2018-06-08T11:11:25.798Z,34
2018-06-08T11:12:26.531Z,34
2018-06-08T11:13:27.250Z,34
2018-06-08T11:14:27.980Z,33
2018-06-08T11:15:28.700Z,33
2018-06-08T11:16:29.438Z,32
2018-06-08T11:17:30.153Z,32
2018-06-08T11:18:30.875Z,32
2018-06-08T11:19:31.594Z,32
2018-06-08T11:20:32.316Z,32
2018-06-08T11:21:33.076Z,31
2018-06-08T11:22:33.756Z,31
2018-06-08T11:23:34.478Z,31
2018-06-08T11:24:35.199Z,30
2018-06-08T11:25:35.919Z,30
2018-06-08T11:26:36.638Z,29
2018-06-08T11:27:37.357Z,30
2018-06-08T11:28:38.078Z,29
2018-06-08T11:29:38.797Z,29
2018-06-08T11:30:39.517Z,29
2018-06-08T11:31:40.237Z,29
2018-06-08T11:32:40.955Z,29
2018-06-08T11:33:41.686Z,29
2018-06-08T11:34:42.404Z,29
2018-06-08T11:35:43.123Z,28
2018-06-08T11:36:43.842Z,28
2018-06-08T11:37:44.561Z,28
2018-06-08T11:38:45.278Z,28
2018-06-08T11:39:46.009Z,28
2018-06-08T11:40:46.729Z,27
2018-06-08T11:41:47.460Z,27
2018-06-08T11:42:48.178Z,27
2018-06-08T11:43:48.896Z,26
2018-06-08T11:44:49.614Z,26
2018-06-08T11:45:50.352Z,26
2018-06-08T11:46:51.064Z,26
2018-06-08T11:47:51.795Z,26
2018-06-08T11:48:52.515Z,25
2018-06-08T11:49:53.234Z,25
2018-06-08T11:50:53.967Z,24
2018-06-08T11:51:54.684Z,24
2018-06-08T11:52:55.405Z,24
2018-06-08T11:53:56.129Z,23
2018-06-08T11:54:56.849Z,23
2018-06-08T11:55:57.564Z,23
2018-06-08T11:56:58.283Z,23
2018-06-08T11:57:59.014Z,23
2018-06-08T11:58:59.733Z,23
2018-06-08T12:00:00.452Z,23
2018-06-08T12:01:01.174Z,22
2018-06-08T12:02:01.896Z,23
2018-06-08T12:03:02.627Z,23
2018-06-08T12:04:03.347Z,23
2018-06-08T12:05:04.068Z,22
2018-06-08T12:06:04.788Z,23
2018-06-08T12:07:05.507Z,22
2018-06-08T12:08:06.239Z,23
2018-06-08T12:09:07.016Z,23
2018-06-08T12:10:07.680Z,22
2018-06-08T12:11:08.400Z,22
2018-06-08T12:12:09.129Z,22
2018-06-08T12:13:09.849Z,22
2018-06-08T12:14:10.581Z,22
2018-06-08T12:15:11.302Z,22
2018-06-08T12:16:12.023Z,22
2018-06-08T12:17:12.768Z,22
2018-06-08T12:18:13.469Z,23
2018-06-08T12:19:14.193Z,22
2018-06-08T12:20:14.915Z,23
2018-06-08T12:21:15.637Z,23
2018-06-08T12:22:16.356Z,23
2018-06-08T12:23:17.078Z,23
2018-06-08T12:24:17.799Z,23
2018-06-08T12:25:18.532Z,23
2018-06-08T12:26:19.264Z,23
2018-06-08T12:27:19.998Z,23
2018-06-08T12:28:20.719Z,23
2018-06-08T12:29:21.443Z,23
2018-06-08T12:30:22.172Z,23
2018-06-08T12:31:22.894Z,23
2018-06-08T12:32:23.619Z,24
2018-06-08T12:33:24.348Z,24
2018-06-08T12:34:25.070Z,23
2018-06-08T12:35:25.792Z,23
2018-06-08T12:36:26.527Z,23
2018-06-08T12:37:27.248Z,24
2018-06-08T12:38:27.969Z,24
2018-06-08T12:39:28.689Z,24
2018-06-08T12:40:29.415Z,24
2018-06-08T12:41:30.133Z,25
2018-06-08T12:42:30.868Z,25
2018-06-08T12:43:31.652Z,25
2018-06-08T12:44:32.322Z,25
2018-06-08T12:45:33.044Z,25
2018-06-08T12:46:33.769Z,25
2018-06-08T12:47:34.487Z,26
2018-06-08T12:48:35.209Z,26
2018-06-08T12:49:35.930Z,26
2018-06-08T12:50:36.652Z,26
2018-06-08T12:51:37.373Z,26
2018-06-08T12:52:38.094Z,26
2018-06-08T12:53:38.828Z,26
2018-06-08T12:54:39.549Z,26
2018-06-08T12:55:40.292Z,26
2018-06-08T12:56:40.997Z,26
2018-06-08T12:57:41.721Z,27
2018-06-08T12:58:42.454Z,27
2018-06-08T12:59:43.187Z,27
2018-06-08T13:00:43.908Z,28
2018-06-08T13:01:44.634Z,28
2018-06-08T13:02:45.353Z,28
2018-06-08T13:03:46.073Z,28
2018-06-08T13:04:46.805Z,29
2018-06-08T13:05:47.529Z,29
2018-06-08T13:06:48.251Z,29
2018-06-08T13:07:48.974Z,30
2018-06-08T13:08:49.694Z,30
2018-06-08T13:09:50.474Z,30
2018-06-08T13:10:51.146Z,30
2018-06-08T13:11:51.868Z,30
2018-06-08T13:12:52.588Z,30
2018-06-08T13:13:53.311Z,31
2018-06-08T13:14:54.043Z,32
2018-06-08T13:15:54.765Z,32
2018-06-08T13:16:55.498Z,31
2018-06-08T13:17:56.221Z,31
2018-06-08T13:18:56.945Z,31
2018-06-08T13:19:57.667Z,32
2018-06-08T13:20:58.389Z,32
2018-06-08T13:21:59.112Z,32
2018-06-08T13:22:59.838Z,31
2018-06-08T13:24:00.570Z,32
2018-06-08T13:25:01.320Z,32
2018-06-08T13:26:02.013Z,33
2018-06-08T13:27:02.749Z,34
2018-06-08T13:28:03.483Z,34
2018-06-08T13:29:04.208Z,34
2018-06-08T13:30:04.933Z,34
2018-06-08T13:31:05.656Z,35
2018-06-08T13:32:06.380Z,35
2018-06-08T13:33:07.117Z,36
2018-06-08T13:34:07.842Z,37
2018-06-08T13:35:08.566Z,36
2018-06-08T13:36:09.294Z,36
2018-06-08T13:37:10.018Z,35
2018-06-08T13:38:10.743Z,37
2018-06-08T13:39:11.467Z,38
2018-06-08T13:40:12.194Z,37
2018-06-08T13:41:12.919Z,38
2018-06-08T13:42:13.644Z,38
2018-06-08T13:43:14.370Z,38
2018-06-08T13:44:15.099Z,41
2018-06-08T13:45:15.871Z,41
2018-06-08T13:46:16.556Z,43
2018-06-08T13:47:17.285Z,43
2018-06-08T13:48:18.016Z,44
2018-06-08T13:49:18.745Z,44
2018-06-08T13:50:19.475Z,45
2018-06-08T13:51:20.206Z,44
2018-06-08T13:52:20.934Z,43
2018-06-08T13:53:21.665Z,46
2018-06-08T13:54:22.394Z,45
2018-06-08T13:55:23.125Z,45
2018-06-08T13:56:23.860Z,45
2018-06-08T13:57:24.597Z,45
2018-06-08T13:58:25.333Z,44
2018-06-08T13:59:26.073Z,44
2018-06-08T14:00:26.803Z,43
2018-06-08T14:01:27.536Z,45
2018-06-08T14:02:28.265Z,46
2018-06-08T14:03:28.996Z,46
2018-06-08T14:04:29.726Z,45
2018-06-08T14:05:30.458Z,45
2018-06-08T14:06:31.189Z,45
2018-06-08T14:07:31.935Z,44
2018-06-08T14:08:32.662Z,44
2018-06-08T14:09:33.394Z,45
2018-06-08T14:10:34.127Z,45
2018-06-08T14:11:34.858Z,44
2018-06-08T14:13:36.327Z,45
2018-06-08T14:14:37.062Z,45
2018-06-08T14:15:37.795Z,46
2018-06-08T14:16:38.527Z,45
2018-06-08T14:17:39.259Z,45
2018-06-08T14:18:39.995Z,43
2018-06-08T14:19:40.726Z,44
2018-06-08T14:20:41.456Z,45
2018-06-08T14:21:42.189Z,45
2018-06-08T14:22:42.917Z,43
2018-06-08T14:23:43.653Z,45
2018-06-08T14:24:44.393Z,45
2018-06-08T14:25:45.132Z,45
2018-06-08T14:26:45.876Z,45